createdAt,value
2022-09-10T00:05:47.278Z,4.87
2022-09-10T00:11:42.067Z,6.60
2022-09-10T00:17:36.706Z,3.53
2022-09-10T00:23:31.846Z,2.63
2022-09-10T00:29:25.111Z,2.87
2022-09-10T00:35:20.194Z,2.10
2022-09-10T00:41:15.273Z,2.90
2022-09-10T00:47:14.114Z,3.33
2022-09-10T00:53:13.068Z,2.53
2022-09-10T00:59:11.104Z,2.67
2022-09-10T01:05:06.005Z,2.30
2022-09-10T01:11:11.578Z,2.70
2022-09-10T01:17:15.797Z,6.43
2022-09-10T01:23:43.477Z,2.67
2022-09-10T01:29:44.856Z,3.27
2022-09-10T01:35:43.456Z,4.80
2022-09-10T01:41:37.408Z,2.77
2022-09-10T01:48:04.708Z,2.70
2022-09-10T01:54:15.652Z,5.53
2022-09-10T02:00:12.005Z,2.43
2022-09-10T02:06:13.044Z,2.10
2022-09-10T02:12:08.407Z,3.17
2022-09-10T02:18:16.011Z,2.00
2022-09-10T02:24:12.886Z,2.13
2022-09-10T02:30:09.294Z,2.13
2022-09-10T02:36:05.357Z,3.67
2022-09-10T02:42:02.227Z,2.40
2022-09-10T02:47:56.200Z,2.97
2022-09-10T02:53:50.542Z,2.53
2022-09-10T02:59:45.375Z,2.30
2022-09-10T03:05:39.139Z,4.63
2022-09-10T03:11:32.486Z,4.20
2022-09-10T03:17:27.535Z,3.47
2022-09-10T03:23:21.203Z,2.30
2022-09-10T03:29:15.838Z,2.40
2022-09-10T03:35:12.926Z,2.70
2022-09-10T03:41:05.978Z,2.90
2022-09-10T03:46:59.435Z,2.50
2022-09-10T03:52:54.980Z,2.20
2022-09-10T03:58:49.228Z,4.63
2022-09-10T04:04:42.820Z,2.90
2022-09-10T04:10:37.485Z,2.77
2022-09-10T04:16:31.503Z,4.80
2022-09-10T04:22:25.112Z,2.80
2022-09-10T04:28:20.216Z,4.90
2022-09-10T04:34:16.695Z,3.30
2022-09-10T04:40:11.288Z,6.40
2022-09-10T04:46:06.343Z,2.90
2022-09-10T04:52:00.797Z,2.80
2022-09-10T04:57:54.702Z,2.87
2022-09-10T05:03:49.798Z,2.80
2022-09-10T05:09:42.839Z,2.80
2022-09-10T05:15:41.875Z,3.27
2022-09-10T05:21:37.350Z,3.10
2022-09-10T05:27:30.355Z,3.00
2022-09-10T05:33:23.457Z,3.60
2022-09-10T05:39:18.056Z,2.50
2022-09-10T05:45:12.979Z,3.40
2022-09-10T05:51:07.454Z,3.97
2022-09-10T05:57:01.767Z,3.70
2022-09-10T06:02:57.330Z,2.93
2022-09-10T06:08:58.415Z,4.17
2022-09-10T06:15:04.990Z,3.50
2022-09-10T06:21:05.829Z,2.80
2022-09-10T06:26:59.736Z,4.30
2022-09-10T06:32:57.883Z,3.17
2022-09-10T06:38:58.501Z,3.33
2022-09-10T06:44:52.022Z,4.73
2022-09-10T06:50:59.907Z,3.40
2022-09-10T06:57:01.382Z,4.90
2022-09-10T07:02:56.131Z,3.70
2022-09-10T07:08:55.682Z,5.53
2022-09-10T07:14:49.453Z,5.00
2022-09-10T07:20:43.738Z,3.80
2022-09-10T07:26:38.820Z,4.87
2022-09-10T07:32:33.910Z,3.70
2022-09-10T07:38:34.013Z,9.97
2022-09-10T07:44:28.758Z,4.57
2022-09-10T07:50:26.875Z,5.97
2022-09-10T07:56:22.493Z,6.37
2022-09-10T08:02:17.790Z,6.70
2022-09-10T08:08:19.990Z,9.13
2022-09-10T08:14:14.145Z,5.90
2022-09-10T08:20:13.831Z,5.53
2022-09-10T08:26:10.241Z,9.57
2022-09-10T08:32:05.405Z,7.97
2022-09-10T08:38:00.122Z,9.43
2022-09-10T08:43:57.317Z,7.10
2022-09-10T08:49:57.230Z,9.33
2022-09-10T08:55:52.443Z,8.80
2022-09-10T09:01:50.636Z,10.27
2022-09-10T09:07:44.631Z,9.70
2022-09-10T09:14:05.048Z,11.00
2022-09-10T09:20:07.975Z,12.30
2022-09-10T09:26:12.688Z,11.03
2022-09-10T09:32:16.290Z,10.27
2022-09-10T09:38:19.031Z,10.90
2022-09-10T09:44:22.865Z,12.37
2022-09-10T09:50:18.752Z,11.37
2022-09-10T09:56:18.564Z,12.20
2022-09-10T10:02:14.956Z,11.90
2022-09-10T10:08:31.235Z,14.33
2022-09-10T10:14:38.482Z,13.57
2022-09-10T10:20:41.667Z,11.00
2022-09-10T10:26:38.702Z,14.27
2022-09-10T10:32:52.856Z,13.03
2022-09-10T10:38:50.698Z,10.83
2022-09-10T10:45:00.005Z,12.50
2022-09-10T10:50:59.400Z,10.00
2022-09-10T10:57:03.542Z,9.43
2022-09-10T11:03:05.885Z,11.93
2022-09-10T11:09:03.156Z,10.73
2022-09-10T11:15:01.728Z,10.03
2022-09-10T11:21:04.525Z,8.90
2022-09-10T11:27:04.001Z,9.20
2022-09-10T11:33:03.041Z,9.23
2022-09-10T11:39:08.662Z,9.07
2022-09-10T11:45:08.648Z,7.07
2022-09-10T11:51:04.241Z,5.50
2022-09-10T11:57:02.050Z,6.37
2022-09-10T12:03:36.230Z,4.80
2022-09-10T12:09:37.694Z,4.83
2022-09-10T12:15:34.747Z,4.30
2022-09-10T12:21:34.170Z,5.40
2022-09-10T12:27:46.213Z,4.80
2022-09-10T12:34:12.677Z,4.97
2022-09-10T12:40:46.200Z,5.60
2022-09-10T12:46:44.810Z,4.37
2022-09-10T12:52:52.782Z,3.77
2022-09-10T12:58:59.631Z,2.70
2022-09-10T13:04:59.619Z,5.83
2022-09-10T13:11:13.855Z,3.50
2022-09-10T13:17:29.511Z,4.63
2022-09-10T13:23:25.323Z,3.00
2022-09-10T13:29:35.234Z,2.77
2022-09-10T13:36:01.702Z,3.53
2022-09-10T13:42:13.481Z,5.33
2022-09-10T13:48:15.119Z,2.37
2022-09-10T13:54:14.112Z,2.37
2022-09-10T14:00:19.894Z,12.50
2022-09-10T14:06:17.306Z,4.87
2022-09-10T14:12:14.175Z,4.40
2022-09-10T14:18:12.119Z,6.40
2022-09-10T14:24:05.420Z,4.30
2022-09-10T14:30:17.187Z,6.07
2022-09-10T14:36:21.994Z,6.03
2022-09-10T14:42:27.533Z,5.93
2022-09-10T14:48:37.357Z,4.93
2022-09-10T14:54:34.686Z,5.17
2022-09-10T15:00:28.648Z,5.80
2022-09-10T15:06:26.049Z,5.43
2022-09-10T15:12:25.206Z,5.10
2022-09-10T15:18:18.195Z,4.60
2022-09-10T15:24:15.794Z,4.20
2022-09-10T15:30:10.858Z,3.80
2022-09-10T15:36:05.083Z,4.60
2022-09-10T15:41:59.674Z,3.90
2022-09-10T15:47:54.594Z,4.23
2022-09-10T15:53:47.406Z,5.40
2022-09-10T15:59:40.929Z,8.40
2022-09-10T16:05:35.313Z,3.60
2022-09-10T16:11:28.915Z,13.03
2022-09-10T16:17:22.176Z,7.03
2022-09-10T16:23:17.106Z,7.10
2022-09-10T16:29:15.064Z,8.90
2022-09-10T16:35:08.597Z,5.50
2022-09-10T16:41:04.034Z,4.60
2022-09-10T16:46:58.037Z,7.33
2022-09-10T16:52:52.554Z,6.47
2022-09-10T16:58:49.586Z,6.30
2022-09-10T17:04:42.969Z,4.80
2022-09-10T17:10:36.218Z,5.27
2022-09-10T17:16:32.962Z,4.73
2022-09-10T17:22:27.342Z,4.00
2022-09-10T17:28:20.195Z,3.87
2022-09-10T17:34:15.892Z,6.33
2022-09-10T17:40:10.286Z,3.20
2022-09-10T17:46:04.498Z,3.57
2022-09-10T17:52:00.516Z,4.90
2022-09-10T17:57:53.790Z,5.63
2022-09-10T18:03:47.226Z,4.50
2022-09-10T18:09:41.806Z,5.70
2022-09-10T18:15:35.247Z,8.20
2022-09-10T18:21:31.629Z,11.23
2022-09-10T18:27:26.697Z,8.17
2022-09-10T18:33:19.979Z,9.77
2022-09-10T18:39:14.237Z,9.57
2022-09-10T18:45:10.128Z,11.63
2022-09-10T18:51:06.693Z,15.67
2022-09-10T18:56:59.997Z,15.40
2022-09-10T19:02:55.706Z,14.87
2022-09-10T19:08:50.164Z,17.33
2022-09-10T19:14:43.482Z,19.57
2022-09-10T19:20:38.926Z,22.07
2022-09-10T19:26:35.037Z,21.83
2022-09-10T19:32:28.259Z,23.00
2022-09-10T19:38:37.107Z,24.43
2022-09-10T19:44:31.562Z,25.03
2022-09-10T19:50:24.673Z,21.70
2022-09-10T19:56:21.637Z,23.13
2022-09-10T20:02:15.024Z,23.23
2022-09-10T20:08:10.032Z,21.63
2022-09-10T20:14:08.230Z,25.60
2022-09-10T20:20:03.214Z,29.00
2022-09-10T20:25:56.122Z,27.07
2022-09-10T20:31:50.677Z,27.50
2022-09-10T20:37:43.928Z,25.30
2022-09-10T20:43:37.890Z,26.47
2022-09-10T20:49:32.481Z,28.17
2022-09-10T20:55:25.704Z,29.47
2022-09-10T21:01:20.121Z,28.37
2022-09-10T21:07:15.372Z,28.20
2022-09-10T21:13:09.961Z,33.90
2022-09-10T21:19:04.754Z,27.57
2022-09-10T21:24:59.310Z,29.63
2022-09-10T21:30:52.607Z,28.97
2022-09-10T21:36:45.881Z,26.27
2022-09-10T21:42:40.490Z,30.70
2022-09-10T21:48:36.222Z,32.53
2022-09-10T21:54:29.560Z,30.10
2022-09-10T22:00:25.906Z,29.47
2022-09-10T22:06:23.314Z,31.37
2022-09-10T22:12:16.551Z,31.47
2022-09-10T22:18:11.290Z,31.90
2022-09-10T22:24:04.173Z,32.60
2022-09-10T22:29:57.752Z,30.37
2022-09-10T22:35:52.380Z,33.50
2022-09-10T22:41:46.483Z,32.33
2022-09-10T22:47:39.703Z,36.07
2022-09-10T22:53:34.407Z,40.87
2022-09-10T22:59:28.100Z,37.63
2022-09-10T23:05:21.350Z,35.97
2022-09-10T23:11:17.352Z,38.87
2022-09-10T23:17:10.571Z,37.30
2022-09-10T23:23:04.157Z,37.23
2022-09-10T23:29:00.701Z,42.70
2022-09-10T23:34:53.928Z,38.50
2022-09-10T23:40:47.506Z,38.40
2022-09-10T23:46:42.211Z,39.70
2022-09-10T23:52:35.499Z,39.00
2022-09-10T23:58:28.737Z,40.43
